createdAt,value
2023-02-13T00:01:33.603Z,12.73
2023-02-13T00:06:37.027Z,12.90
2023-02-13T00:11:40.542Z,13.07
2023-02-13T00:16:45.283Z,13.17
2023-02-13T00:21:48.708Z,12.55
2023-02-13T00:26:52.203Z,12.93
2023-02-13T00:31:57.207Z,12.45
2023-02-13T00:37:00.735Z,12.75
2023-02-13T00:42:04.439Z,12.30
2023-02-13T00:47:09.650Z,12.73
2023-02-13T00:52:13.606Z,12.90
2023-02-13T00:57:17.051Z,11.88
2023-02-13T01:02:21.865Z,11.80
2023-02-13T01:07:25.561Z,12.20
2023-02-13T01:12:29.022Z,12.20
2023-02-13T01:17:33.883Z,12.18
2023-02-13T01:22:37.316Z,12.10
2023-02-13T01:27:40.773Z,11.77
2023-02-13T01:32:48.045Z,12.13
2023-02-13T01:37:51.570Z,12.30
2023-02-13T01:42:54.974Z,12.18
2023-02-13T01:48:05.933Z,11.95
2023-02-13T01:53:17.727Z,11.50
2023-02-13T01:58:26.678Z,11.43
2023-02-13T02:03:36.982Z,11.80
2023-02-13T02:08:45.595Z,11.80
2023-02-13T02:13:55.565Z,12.18
2023-02-13T02:19:21.062Z,11.75
2023-02-13T02:25:19.343Z,11.07
2023-02-13T03:03:09.047Z,9.85
2023-02-13T03:08:13.660Z,10.32
2023-02-13T03:13:36.461Z,10.07
2023-02-13T03:19:04.179Z,9.68
2023-02-13T03:24:18.275Z,10.60
2023-02-13T03:29:55.714Z,9.88
2023-02-13T03:35:35.002Z,9.53
2023-02-13T03:41:01.798Z,9.55
2023-02-13T03:46:07.210Z,9.60
2023-02-13T03:51:19.131Z,9.75
2023-02-13T03:56:42.220Z,9.57
2023-02-13T04:01:55.336Z,9.18
2023-02-13T04:07:05.846Z,8.98
2023-02-13T04:12:17.741Z,9.20
2023-02-13T04:17:27.256Z,9.13
2023-02-13T04:22:32.835Z,8.90
2023-02-13T04:27:36.236Z,8.98
2023-02-13T04:32:39.709Z,8.73
2023-02-13T04:37:44.522Z,8.32
2023-02-13T04:42:49.807Z,8.80
2023-02-13T04:47:54.985Z,8.27
2023-02-13T04:52:59.963Z,8.68
2023-02-13T04:58:03.386Z,8.45
2023-02-13T05:03:08.853Z,8.40
2023-02-13T05:08:13.801Z,8.05
2023-02-13T05:13:17.184Z,7.95
2023-02-13T05:18:20.859Z,8.05
2023-02-13T05:23:26.227Z,8.20
2023-02-13T05:28:47.327Z,7.93
2023-02-13T05:33:50.719Z,7.63
2023-02-13T05:38:55.522Z,7.82
2023-02-13T05:43:58.915Z,7.70
2023-02-13T05:49:04.584Z,7.55
2023-02-13T05:54:09.771Z,7.25
2023-02-13T05:59:13.229Z,7.45
2023-02-13T06:04:16.707Z,7.63
2023-02-13T06:09:21.798Z,6.90
2023-02-13T06:14:25.242Z,7.30
2023-02-13T06:19:28.768Z,7.63
2023-02-13T06:24:33.546Z,7.70
2023-02-13T06:29:37.018Z,7.20
2023-02-13T06:34:40.398Z,7.03
2023-02-13T06:39:45.377Z,6.55
2023-02-13T06:44:48.891Z,7.20
2023-02-13T06:49:52.488Z,6.47
2023-02-13T06:54:57.263Z,6.82
2023-02-13T07:00:00.878Z,7.10
2023-02-13T07:05:04.301Z,7.03
2023-02-13T07:10:14.443Z,6.53
2023-02-13T07:15:18.328Z,6.55
2023-02-13T07:20:21.864Z,6.32
2023-02-13T07:25:26.866Z,6.35
2023-02-13T07:30:31.170Z,6.47
2023-02-13T07:35:36.217Z,6.25
2023-02-13T07:40:41.063Z,6.30
2023-02-13T07:45:44.506Z,6.32
2023-02-13T07:50:47.904Z,6.65
2023-02-13T07:55:52.696Z,6.00
2023-02-13T08:00:56.093Z,5.43
2023-02-13T08:05:59.762Z,6.18
2023-02-13T08:11:27.120Z,5.75
2023-02-13T08:16:30.573Z,5.80
2023-02-13T08:21:35.228Z,5.70
2023-02-13T08:26:40.758Z,5.60
2023-02-13T08:31:44.275Z,5.60
2023-02-13T08:36:47.727Z,5.53
2023-02-13T08:41:52.581Z,5.28
2023-02-13T08:46:56.587Z,5.55
2023-02-13T08:52:01.010Z,5.43
2023-02-13T08:57:07.143Z,4.95
2023-02-13T09:02:12.484Z,5.32
2023-02-13T09:07:15.872Z,5.35
2023-02-13T09:12:20.781Z,5.32
2023-02-13T09:17:24.267Z,5.32
2023-02-13T09:22:27.742Z,5.30
2023-02-13T09:27:33.552Z,5.45
2023-02-13T09:32:37.619Z,4.93
2023-02-13T09:37:41.077Z,5.30
2023-02-13T09:42:47.334Z,5.07
2023-02-13T09:47:52.127Z,5.40
2023-02-13T09:52:57.764Z,5.10
2023-02-13T09:58:16.182Z,4.97
2023-02-13T10:03:32.544Z,5.20
2023-02-13T10:08:56.267Z,4.95
2023-02-13T10:14:13.250Z,4.47
2023-02-13T10:19:33.374Z,4.68
2023-02-13T10:24:43.029Z,4.97
2023-02-13T10:30:09.420Z,5.10
2023-02-13T10:35:25.549Z,4.72
2023-02-13T10:40:34.786Z,4.40
2023-02-13T10:45:58.828Z,4.68
2023-02-13T10:51:13.203Z,4.50
2023-02-13T10:56:30.212Z,4.63
2023-02-13T11:01:45.696Z,4.60
2023-02-13T11:06:57.617Z,4.43
2023-02-13T11:12:29.812Z,4.68
2023-02-13T11:17:40.636Z,4.57
2023-02-13T11:22:44.396Z,4.30
2023-02-13T11:27:53.016Z,4.30
2023-02-13T11:33:06.204Z,4.20
2023-02-13T11:38:22.510Z,4.35
2023-02-13T11:43:34.613Z,4.38
2023-02-13T11:48:39.465Z,4.38
2023-02-13T11:53:43.035Z,4.07
2023-02-13T11:58:46.535Z,4.20
2023-02-13T12:04:06.623Z,4.05
2023-02-13T12:09:16.519Z,3.85
2023-02-13T12:14:24.424Z,4.22
2023-02-13T12:19:39.750Z,4.20
2023-02-13T12:25:29.580Z,4.20
2023-02-13T12:31:23.824Z,4.00
2023-02-13T12:36:40.442Z,4.00
2023-02-13T12:41:59.920Z,3.65
2023-02-13T12:47:17.445Z,3.88
2023-02-13T12:52:44.487Z,3.70
2023-02-13T12:58:05.509Z,3.80
2023-02-13T13:03:36.954Z,3.92
2023-02-13T13:09:48.231Z,3.63
2023-02-13T13:15:01.013Z,3.75
2023-02-13T13:20:41.547Z,3.95
2023-02-13T13:25:59.590Z,3.80
2023-02-13T13:36:15.781Z,3.80
2023-02-13T13:41:32.091Z,3.63
2023-02-13T13:46:49.878Z,3.90
2023-02-13T13:51:53.426Z,3.50
2023-02-13T13:57:23.856Z,3.50
2023-02-13T14:02:49.390Z,3.45
2023-02-13T14:07:55.868Z,3.25
2023-02-13T14:13:04.122Z,3.28
2023-02-13T14:18:21.980Z,3.45
2023-02-13T14:23:35.529Z,3.53
2023-02-13T14:28:42.568Z,3.65
2023-02-13T14:33:46.298Z,3.40
2023-02-13T14:38:58.180Z,3.53
2023-02-13T14:44:03.077Z,3.45
2023-02-13T14:49:14.717Z,3.28
2023-02-13T14:54:28.576Z,3.30
2023-02-13T14:59:38.278Z,3.30
2023-02-13T15:04:45.731Z,3.30
2023-02-13T15:09:54.729Z,3.00
2023-02-13T15:15:02.368Z,3.25
2023-02-13T15:20:21.119Z,3.10
2023-02-13T15:25:31.241Z,3.10
2023-02-13T15:30:38.733Z,3.13
2023-02-13T15:35:42.145Z,3.20
2023-02-13T15:40:46.100Z,3.00
2023-02-13T15:45:51.082Z,2.78
2023-02-13T15:50:54.556Z,3.25
2023-02-13T15:56:02.360Z,2.88
2023-02-13T16:01:09.090Z,2.83
2023-02-13T16:06:17.974Z,3.00
2023-02-13T16:11:30.128Z,3.00
2023-02-13T16:16:46.026Z,2.90
2023-02-13T16:21:50.282Z,2.95
2023-02-13T16:26:54.194Z,3.05
2023-02-13T16:32:19.497Z,2.90
2023-02-13T16:37:52.117Z,2.88
2023-02-13T16:42:55.538Z,2.78
2023-02-13T16:48:04.652Z,2.50
2023-02-13T16:53:08.201Z,2.70
2023-02-13T16:58:19.708Z,2.88
2023-02-13T17:03:24.654Z,2.85
2023-02-13T17:08:28.321Z,2.53
2023-02-13T17:13:31.984Z,2.72
2023-02-13T17:18:36.784Z,2.70
2023-02-13T17:23:40.240Z,2.42
2023-02-13T17:28:43.743Z,2.70
2023-02-13T17:33:48.607Z,2.63
2023-02-13T17:38:52.040Z,2.50
2023-02-13T17:43:55.599Z,2.70
2023-02-13T17:49:00.380Z,2.38
2023-02-13T17:54:03.918Z,2.40
2023-02-13T17:59:08.627Z,2.58
2023-02-13T18:04:13.410Z,2.60
2023-02-13T18:09:16.831Z,2.60
2023-02-13T18:14:20.218Z,2.67
2023-02-13T18:19:25.012Z,2.33
2023-02-13T18:24:31.087Z,2.38
2023-02-13T18:29:36.201Z,2.40
2023-02-13T18:34:41.476Z,2.60
2023-02-13T18:39:45.191Z,2.50
2023-02-13T18:44:48.601Z,2.50
2023-02-13T18:49:53.429Z,2.42
2023-02-13T18:54:56.949Z,2.50
2023-02-13T19:00:00.468Z,2.40
2023-02-13T19:05:06.320Z,2.40
2023-02-13T19:10:14.820Z,2.60
2023-02-13T19:15:18.344Z,2.40
2023-02-13T19:20:23.259Z,2.60
2023-02-13T19:25:26.666Z,2.50
2023-02-13T19:30:30.213Z,2.97
2023-02-13T19:35:35.540Z,2.70
2023-02-13T19:40:38.948Z,2.58
2023-02-13T19:45:43.617Z,2.72
2023-02-13T19:50:48.439Z,2.70
2023-02-13T19:55:59.848Z,3.00
2023-02-13T20:01:09.520Z,2.70
2023-02-13T20:06:17.699Z,2.53
2023-02-13T20:16:26.248Z,2.72
2023-02-13T20:21:31.080Z,3.05
2023-02-13T20:26:35.690Z,2.72
2023-02-13T20:31:41.344Z,2.80
2023-02-13T20:36:46.308Z,2.90
2023-02-13T20:41:50.541Z,3.08
2023-02-13T20:46:54.941Z,2.90
2023-02-13T20:51:59.794Z,3.17
2023-02-13T20:57:03.457Z,3.13
2023-02-13T21:02:07.724Z,2.97
2023-02-13T21:07:12.518Z,3.03
2023-02-13T21:12:15.930Z,3.53
2023-02-13T21:17:19.393Z,3.30
2023-02-13T21:22:24.210Z,3.10
2023-02-13T21:27:28.383Z,3.55
2023-02-13T21:32:31.817Z,3.50
2023-02-13T21:37:36.735Z,3.85
2023-02-13T21:42:40.166Z,3.22
2023-02-13T21:47:44.675Z,3.67
2023-02-13T21:52:49.504Z,3.40
2023-02-13T21:57:52.926Z,3.40
2023-02-13T22:02:56.403Z,3.50
2023-02-13T22:08:13.769Z,3.80
2023-02-13T22:13:17.234Z,3.90
2023-02-13T22:18:20.630Z,3.47
2023-02-13T22:23:25.858Z,3.60
2023-02-13T22:28:29.858Z,3.42
2023-02-13T22:33:35.504Z,3.60
2023-02-13T22:38:42.212Z,3.55
2023-02-13T22:43:46.066Z,3.60
2023-02-13T22:48:51.999Z,3.58
2023-02-13T22:53:58.732Z,3.38
2023-02-13T22:59:02.143Z,3.30
2023-02-13T23:04:05.862Z,3.63
2023-02-13T23:09:10.744Z,3.78
2023-02-13T23:14:15.393Z,4.00
2023-02-13T23:19:18.953Z,3.92
2023-02-13T23:24:23.872Z,3.70
2023-02-13T23:29:27.958Z,3.92
2023-02-13T23:34:31.369Z,3.85
2023-02-13T23:39:36.186Z,3.72
2023-02-13T23:44:39.630Z,3.70
2023-02-13T23:49:43.072Z,3.88
2023-02-13T23:54:47.851Z,3.80
2023-02-13T23:59:52.160Z,3.70
